Time;durP1;ratioP1;P1;durP2;ratioP2;P2;SDS_P1;SDS_P2;PMS_P1;PMS_P2;Temp;Humidity;BMP_temperature;BMP_pressure;BME280_temperature;BME280_humidity;BME280_pressure;Samples;Min_cycle;Max_cycle;Signal;HPM_P1;HPM_P2
2021/01/20 00:02:04;;;;;;;8.05;5.15;;;;;;;-6.46;94.75;93701.56;4972949;28;19917;-86
2021/01/20 00:04:31;;;;;;;9.93;3.90;;;;;;;-6.50;94.89;93710.16;4972248;28;20047;-86
2021/01/20 00:06:57;;;;;;;9.98;6.47;;;;;;;-6.49;94.87;93707.56;4972689;28;20047;-85
2021/01/20 00:09:23;;;;;;;;;;;;;;;-6.49;94.45;93702.56;4972933;28;20046;-86
2021/01/20 00:11:49;;;;;;;4.13;3.75;;;;;;;-6.57;95.40;93708.03;4972203;28;19921;-86
2021/01/20 00:14:16;;;;;;;4.25;2.88;;;;;;;-6.63;95.78;93702.63;4972263;28;20046;-87
2021/01/20 00:16:43;;;;;;;11.25;5.43;;;;;;;-6.61;95.67;93704.09;4972225;28;20514;-85
2021/01/20 00:19:10;;;;;;;5.53;4.38;;;;;;;-6.58;94.91;93703.09;4972054;28;20475;-86
2021/01/20 00:21:38;;;;;;;5.35;3.45;;;;;;;-6.54;94.58;93696.25;4972237;28;20050;-86
2021/01/20 00:24:04;;;;;;;4.07;2.95;;;;;;;-6.52;95.66;93700.25;4972194;28;20105;-86
2021/01/20 00:26:31;;;;;;;24.02;1.98;;;;;;;-6.64;95.02;93676.81;4972161;28;20093;-86
2021/01/20 00:28:57;;;;;;;2.95;2.08;;;;;;;-6.47;95.04;93685.75;4972242;28;20042;-85
2021/01/20 00:31:23;;;;;;;4.03;2.38;;;;;;;-6.38;95.57;93696.09;4972161;28;20050;-86
2021/01/20 00:33:49;;;;;;;;;;;;;;;-6.32;95.12;93704.03;4972260;28;20043;-86
2021/01/20 00:36:15;;;;;;;2.00;1.50;;;;;;;-6.39;94.85;93697.78;4975169;28;19964;-85
2021/01/20 00:38:43;;;;;;;3.97;2.58;;;;;;;-6.33;94.72;93704.13;4991188;28;20043;-85
2021/01/20 00:41:09;;;;;;;3.67;3.25;;;;;;;-6.28;94.34;93711.31;4991424;28;20054;-86
2021/01/20 00:43:35;;;;;;;;;;;;;;;-6.24;94.21;93708.56;4991952;28;20050;-85
2021/01/20 00:46:01;;;;;;;0.98;0.93;;;;;;;-6.24;94.98;93706.06;4991399;28;19922;-86
2021/01/20 00:48:27;;;;;;;3.20;1.40;;;;;;;-6.18;94.62;93697.38;4991340;28;20116;-85
2021/01/20 00:50:54;;;;;;;1.70;1.17;;;;;;;-6.15;93.86;93694.69;4991537;28;20061;-86
2021/01/20 00:53:20;;;;;;;3.72;1.40;;;;;;;-6.12;93.86;93706.19;4991318;28;20049;-86
2021/01/20 00:55:47;;;;;;;2.92;1.90;;;;;;;-6.14;94.61;93698.78;4991192;28;20510;-85
2021/01/20 00:58:14;;;;;;;2.13;1.58;;;;;;;-6.09;93.95;93703.47;4991237;28;20046;-85
2021/01/20 01:00:40;;;;;;;1.95;0.90;;;;;;;-6.10;93.96;93697.69;4991204;28;20042;-85
2021/01/20 01:03:06;;;;;;;;;;;;;;;-6.11;93.80;93695.28;4991593;28;20053;-86
2021/01/20 01:05:32;;;;;;;1.95;1.08;;;;;;;-6.12;94.57;93704.47;4991277;28;19918;-85
2021/01/20 01:07:58;;;;;;;;;;;;;;;-6.09;94.61;93706.78;4991775;28;20101;-85
2021/01/20 01:10:24;;;;;;;1.15;1.02;;;;;;;-6.08;93.72;93702.59;4991233;28;19917;-86
2021/01/20 01:12:52;;;;;;;2.25;2.10;;;;;;;-6.07;93.68;93704.22;4991279;28;20479;-85
2021/01/20 01:15:18;;;;;;;4.53;1.02;;;;;;;-6.05;93.56;93702.41;4990999;28;20140;-87
2021/01/20 01:17:44;;;;;;;;;;;;;;;-6.02;94.11;93699.66;4991451;28;20489;-85
2021/01/20 01:20:11;;;;;;;1.08;1.02;;;;;;;-6.13;93.90;93687.06;4991304;28;19922;-85
2021/01/20 01:22:38;;;;;;;2.53;2.03;;;;;;;-5.97;93.66;93705.19;4991168;28;20077;-86
2021/01/20 01:25:05;;;;;;;1.25;1.15;;;;;;;-6.01;93.32;93685.47;4991248;28;20042;-86
2021/01/20 01:27:31;;;;;;;1.58;1.40;;;;;;;-5.98;93.17;93688.56;4991078;28;20065;-88
2021/01/20 01:29:58;;;;;;;;;;;;;;;-5.93;93.41;93681.56;4991376;28;20057;-86
2021/01/20 01:32:24;;;;;;;1.42;1.25;;;;;;;-5.95;93.48;93678.38;4991148;28;19918;-85
2021/01/20 01:34:50;;;;;;;;;;;;;;;-5.90;93.09;93673.88;4991213;28;20047;-87
2021/01/20 01:37:16;;;;;;;3.63;1.75;;;;;;;-5.92;93.12;93665.66;4990963;28;19960;-85
2021/01/20 01:39:42;;;;;;;;;;;;;;;-5.91;93.63;93659.78;4991476;28;20042;-85
2021/01/20 01:42:09;;;;;;;1.92;1.17;;;;;;;-5.99;93.97;93654.44;4990986;28;19918;-86
2021/01/20 01:44:35;;;;;;;3.35;2.42;;;;;;;-5.92;93.68;93668.16;4990854;28;20149;-86
2021/01/20 01:47:03;;;;;;;2.50;1.13;;;;;;;-5.87;93.69;93669.56;4991083;28;20042;-85
2021/01/20 01:49:30;;;;;;;2.75;2.47;;;;;;;-5.87;93.48;93667.88;4992157;28;20399;-86
2021/01/20 01:52:01;;;;;;;4.70;1.67;;;;;;;-5.86;93.51;93673.69;4994509;28;20038;-86
2021/01/20 01:54:28;;;;;;;5.53;2.38;;;;;;;-5.85;92.63;93667.75;4994297;28;20062;-85
2021/01/20 01:56:55;;;;;;;2.08;1.50;;;;;;;-5.86;93.05;93674.50;4994012;28;20050;-85
2021/01/20 01:59:22;;;;;;;0.52;0.47;;;;;;;-5.83;92.91;93674.28;4994137;28;20054;-86
2021/01/20 02:01:48;;;;;;;1.92;1.80;;;;;;;-5.85;92.76;93675.28;4994059;28;20487;-85
2021/01/20 02:04:15;;;;;;;2.55;1.80;;;;;;;-5.85;93.08;93680.28;4994027;28;20056;-86
2021/01/20 02:06:43;;;;;;;1.30;1.15;;;;;;;-5.80;92.78;93676.59;4994108;28;20046;-85
2021/01/20 02:09:09;;;;;;;2.70;1.63;;;;;;;-5.76;93.16;93672.19;4993727;28;20054;-86
2021/01/20 02:11:49;;;;;;;1.95;1.27;;;;;;;-5.74;93.11;93677.88;4993782;28;20053;-85
2021/01/20 02:14:27;;;;;;;2.70;1.52;;;;;;;-5.86;92.44;93656.16;4994038;28;20083;-85
2021/01/20 02:17:01;;;;;;;1.90;1.48;;;;;;;-5.83;92.71;93669.28;4994167;28;20057;-87
2021/01/20 02:19:50;;;;;;;1.77;1.25;;;;;;;-5.94;92.81;93644.97;4993954;28;20046;-86
2021/01/20 02:22:27;;;;;;;3.10;1.05;;;;;;;-5.77;92.44;93670.59;4993276;28;20390;-87
2021/01/20 02:25:11;;;;;;;2.08;1.13;;;;;;;-5.77;92.93;93668.09;4993614;28;20137;-86
2021/01/20 02:27:45;;;;;;;4.35;1.63;;;;;;;-5.80;92.49;93655.75;4993660;28;20047;-85
2021/01/20 02:30:13;;;;;;;3.08;1.70;;;;;;;-5.78;92.74;93676.50;4993496;28;20052;-86
2021/01/20 02:32:41;;;;;;;3.88;2.95;;;;;;;-5.74;92.61;93672.88;4993469;28;20038;-86
2021/01/20 02:35:11;;;;;;;3.22;1.63;;;;;;;-5.76;92.56;93677.19;4993536;28;20050;-86
2021/01/20 02:37:38;;;;;;;3.03;1.95;;;;;;;-5.73;92.24;93677.00;4993764;28;20053;-85
2021/01/20 02:40:06;;;;;;;4.07;2.20;;;;;;;-5.84;92.81;93669.41;4993443;28;20049;-86
2021/01/20 02:42:32;;;;;;;3.22;2.03;;;;;;;-5.80;93.02;93684.09;4993114;28;20054;-86
2021/01/20 02:44:59;;;;;;;2.88;1.65;;;;;;;-5.83;92.36;93676.78;4993104;28;20046;-86
2021/01/20 02:47:26;;;;;;;4.55;1.58;;;;;;;-5.77;92.18;93673.91;4993673;28;20054;-86
2021/01/20 02:49:54;;;;;;;1.20;0.93;;;;;;;-5.77;92.35;93678.09;4993412;28;20054;-86
2021/01/20 02:52:30;;;;;;;4.43;1.23;;;;;;;-5.78;93.04;93679.78;4993142;28;20500;-86
2021/01/20 02:54:59;;;;;;;1.20;0.82;;;;;;;-5.73;92.96;93689.53;4993125;28;20046;-86
2021/01/20 02:57:27;;;;;;;1.85;1.38;;;;;;;-5.83;92.67;93671.00;4992716;28;20104;-87
2021/01/20 02:59:56;;;;;;;2.10;1.15;;;;;;;-5.65;92.65;93692.31;4992857;28;20046;-87
2021/01/20 03:02:24;;;;;;;2.75;1.98;;;;;;;-5.63;92.61;93688.03;4993159;28;20046;-86
2021/01/20 03:04:57;;;;;;;5.07;1.77;;;;;;;-5.67;91.77;93680.81;4993147;28;20080;-86
2021/01/20 03:07:24;;;;;;;6.53;2.85;;;;;;;-5.62;91.10;93676.31;4992732;28;20055;-87
2021/01/20 03:09:51;;;;;;;2.05;1.52;;;;;;;-5.56;91.30;93680.13;4992560;28;20380;-86
2021/01/20 03:12:17;;;;;;;1.73;1.42;;;;;;;-5.55;91.38;93676.72;4992806;28;20046;-86
2021/01/20 03:14:45;;;;;;;;;;;;;;;-5.60;91.59;93666.19;4993175;28;20105;-86
2021/01/20 03:17:11;;;;;;;2.75;2.47;;;;;;;-5.69;91.44;93665.09;4992561;28;20259;-87
2021/01/20 03:19:37;;;;;;;2.00;1.70;;;;;;;-5.57;90.92;93668.47;4992707;28;20043;-86
2021/01/20 03:22:04;;;;;;;;;;;;;;;-5.58;91.12;93680.22;4993078;28;20046;-86
2021/01/20 03:24:31;;;;;;;1.63;1.42;;;;;;;-5.59;91.35;93671.09;4992427;28;19917;-87
2021/01/20 03:26:57;;;;;;;;;;;;;;;-5.55;91.18;93661.69;4992929;28;20054;-85
2021/01/20 03:29:23;;;;;;;1.70;1.08;;;;;;;-5.61;91.33;93669.59;4992654;28;19917;-86
2021/01/20 03:31:49;;;;;;;;;;;;;;;-5.61;91.89;93672.09;4992764;28;20042;-87
2021/01/20 03:34:15;;;;;;;2.38;1.50;;;;;;;-5.64;92.05;93675.63;4992497;28;19922;-86
2021/01/20 03:36:41;;;;;;;;;;;;;;;-5.66;91.92;93675.69;4992717;28;20042;-87
2021/01/20 03:39:08;;;;;;;2.25;1.25;;;;;;;-5.69;91.88;93673.38;4992138;28;20037;-86
2021/01/20 03:41:34;;;;;;;2.42;2.22;;;;;;;-5.65;91.39;93667.28;4992540;28;20063;-86
2021/01/20 03:44:00;;;;;;;;;;;;;;;-5.59;91.96;93662.78;4992588;28;20399;-86
2021/01/20 03:46:26;;;;;;;1.63;0.95;;;;;;;-5.58;90.81;93657.69;4992269;28;19951;-86
2021/01/20 03:48:52;;;;;;;;;;;;;;;-5.54;91.63;93665.78;4992519;28;20085;-86
2021/01/20 03:51:18;;;;;;;0.80;0.70;;;;;;;-5.51;91.23;93665.59;4992059;28;19917;-87
2021/01/20 03:53:45;;;;;;;1.27;1.17;;;;;;;-5.45;91.37;93666.88;4991907;28;20524;-86
2021/01/20 03:56:11;;;;;;;;;;;;;;;-5.44;90.75;93671.81;4992256;28;20478;-86
2021/01/20 03:58:38;;;;;;;1.90;1.52;;;;;;;-5.44;90.04;93673.50;4991942;28;20353;-87
2021/01/20 04:01:04;;;;;;;;;;;;;;;-5.41;90.69;93669.09;4992480;28;20050;-86
2021/01/20 04:03:30;;;;;;;4.32;1.63;;;;;;;-5.37;90.25;93667.19;4991768;28;19964;-88
2021/01/20 04:05:56;;;;;;;;;;;;;;;-5.28;90.33;93680.81;4992285;28;20053;-86
2021/01/20 04:08:22;;;;;;;4.40;1.50;;;;;;;-5.29;90.15;93680.00;4991539;28;19922;-87
2021/01/20 04:10:48;;;;;;;1.60;1.02;;;;;;;-5.25;90.55;93685.59;4991735;28;20043;-87
2021/01/20 04:13:15;;;;;;;1.10;1.00;;;;;;;-5.22;89.98;93685.41;4991227;28;20042;-86
2021/01/20 04:15:42;;;;;;;4.95;1.88;;;;;;;-5.21;90.36;93676.19;4991671;28;20046;-87
2021/01/20 04:18:08;;;;;;;;;;;;;;;-5.09;90.11;93680.38;4992157;28;20046;-86
2021/01/20 04:20:34;;;;;;;1.65;1.52;;;;;;;-5.11;89.90;93674.66;4991633;28;19978;-87
2021/01/20 04:23:00;;;;;;;;;;;;;;;-5.04;90.12;93677.56;4991927;28;20057;-86
2021/01/20 04:25:26;;;;;;;1.60;1.50;;;;;;;-5.02;89.90;93686.59;4991559;28;19917;-86
2021/01/20 04:27:52;;;;;;;;;;;;;;;-4.98;89.58;93689.69;4992175;28;20042;-85
2021/01/20 04:30:20;;;;;;;1.38;1.27;;;;;;;-5.00;89.36;93689.00;4991694;28;19929;-86
2021/01/20 04:32:47;;;;;;;2.28;1.17;;;;;;;-4.90;89.71;93682.47;4991637;28;20445;-85
2021/01/20 04:35:13;;;;;;;;;;;;;;;-4.88;89.36;93688.16;4991818;28;20046;-87
2021/01/20 04:37:39;;;;;;;2.55;1.23;;;;;;;-4.86;89.57;93696.34;4991414;28;20024;-85
2021/01/20 04:40:06;;;;;;;1.52;1.05;;;;;;;-4.79;89.42;93689.22;4991428;28;20042;-86
2021/01/20 04:42:33;;;;;;;3.53;1.83;;;;;;;-4.82;88.87;93684.41;4991394;28;20491;-86
2021/01/20 04:44:59;;;;;;;2.38;1.48;;;;;;;-4.74;89.06;93693.94;4991447;28;20042;-86
2021/01/20 04:47:28;;;;;;;2.30;1.77;;;;;;;-4.67;88.69;93696.81;4991364;28;20038;-86
2021/01/20 04:49:55;;;;;;;3.78;1.92;;;;;;;-4.61;88.63;93703.91;4991246;28;20047;-86
2021/01/20 04:52:23;;;;;;;2.83;1.23;;;;;;;-4.53;87.66;93714.25;4991437;28;20045;-86
2021/01/20 04:54:50;;;;;;;4.18;2.25;;;;;;;-4.48;87.38;93706.41;4991371;28;20042;-87
2021/01/20 04:57:16;;;;;;;9.60;1.85;;;;;;;-4.32;86.92;93713.66;4991229;28;20057;-86
2021/01/20 04:59:43;;;;;;;3.90;3.15;;;;;;;-4.18;85.52;93710.19;4991223;28;20391;-86
2021/01/20 05:02:10;;;;;;;4.85;2.25;;;;;;;-4.12;85.80;93722.28;4991173;28;20055;-86
2021/01/20 05:04:39;;;;;;;4.22;1.75;;;;;;;-4.10;85.95;93725.50;4991001;28;20038;-86
2021/01/20 05:07:07;;;;;;;4.72;2.60;;;;;;;-4.21;85.05;93710.41;4991036;28;20078;-87
2021/01/20 05:09:33;;;;;;;3.55;2.08;;;;;;;-4.02;84.60;93735.78;4991131;28;20074;-86
2021/01/20 05:11:59;;;;;;;;;;;;;;;-3.98;84.32;93740.63;4991655;28;20042;-87
2021/01/20 05:14:25;;;;;;;7.70;2.78;;;;;;;-4.00;84.53;93735.69;4991144;28;19949;-86
2021/01/20 05:16:53;;;;;;;11.52;4.78;;;;;;;-4.14;84.86;93718.28;4991001;28;20046;-86
2021/01/20 05:19:36;;;;;;;8.55;4.60;;;;;;;-3.93;84.38;93736.84;4990938;28;20104;-86
2021/01/20 05:22:07;;;;;;;11.05;6.05;;;;;;;-4.04;84.87;93737.63;4991203;28;20074;-87
2021/01/20 05:24:35;;;;;;;14.60;9.45;;;;;;;-4.14;84.73;93736.66;4994043;28;20096;-85
2021/01/20 05:27:01;;;;;;;19.20;10.40;;;;;;;-4.23;84.92;93738.09;4994875;28;20050;-85
2021/01/20 05:29:28;;;;;;;11.30;6.95;;;;;;;-4.32;85.02;93721.16;4994637;28;20042;-85
2021/01/20 05:31:54;;;;;;;8.10;4.53;;;;;;;-4.23;84.90;93739.78;4994572;28;20046;-84
2021/01/20 05:34:28;;;;;;;12.40;4.22;;;;;;;-4.22;84.75;93742.22;4994772;28;20053;-85
2021/01/20 05:37:07;;;;;;;20.23;8.77;;;;;;;-4.33;84.04;93722.09;4994757;28;20046;-86
2021/01/20 05:39:34;;;;;;;15.88;9.10;;;;;;;-4.81;84.58;93748.69;4995079;28;20058;-85
2021/01/20 05:42:08;;;;;;;19.65;8.40;;;;;;;-4.96;85.72;93755.50;4994490;28;20483;-85
2021/01/20 05:44:35;;;;;;;7.38;4.90;;;;;;;-5.10;87.17;93733.88;4994646;28;20038;-85
2021/01/20 05:47:09;;;;;;;22.55;13.52;;;;;;;-4.93;88.12;93752.00;4994567;28;20046;-85
2021/01/20 05:49:35;;;;;;;25.50;9.98;;;;;;;-4.93;87.87;93747.81;4994446;28;20050;-85
2021/01/20 05:52:02;;;;;;;19.13;7.40;;;;;;;-4.88;87.91;93745.78;4994286;28;20038;-88
2021/01/20 05:54:36;;;;;;;8.18;5.07;;;;;;;-4.77;87.84;93757.59;4994205;28;20050;-86
2021/01/20 05:57:16;;;;;;;23.60;6.20;;;;;;;-4.64;87.48;93755.06;4994133;28;20101;-86
2021/01/20 05:59:43;;;;;;;10.30;3.78;;;;;;;-4.51;86.26;93757.56;4994070;28;20493;-86
2021/01/20 06:02:10;;;;;;;5.47;4.72;;;;;;;-4.48;86.67;93751.53;4994389;28;20042;-86
2021/01/20 06:04:37;;;;;;;17.58;10.65;;;;;;;-5.07;86.66;93670.25;4994060;28;20047;-87
2021/01/20 06:07:06;;;;;;;41.10;22.88;;;;;;;-4.40;86.54;93753.53;4993762;28;20042;-87
2021/01/20 06:09:35;;;;;;;36.45;18.67;;;;;;;-4.37;86.48;93755.81;4993439;28;20050;-88
2021/01/20 06:12:03;;;;;;;38.20;18.40;;;;;;;-4.42;86.11;93763.66;4994003;28;20042;-86
2021/01/20 06:14:29;;;;;;;38.00;19.58;;;;;;;-4.51;86.25;93760.06;4994285;28;20057;-87
2021/01/20 06:17:01;;;;;;;;;;;;;;;-4.46;87.50;93755.53;4994271;28;20051;-88
2021/01/20 06:19:28;;;;;;;17.85;11.82;;;;;;;-4.43;87.20;93755.31;4993697;28;19917;-87
2021/01/20 06:21:57;;;;;;;21.35;14.63;;;;;;;-4.39;87.30;93763.44;5007108;28;20045;-86
2021/01/20 06:24:32;;;;;;;21.20;12.40;;;;;;;-4.34;87.14;93763.13;5013407;28;20092;-86
2021/01/20 06:27:06;;;;;;;11.32;7.28;;;;;;;-4.26;88.23;93768.41;5013157;28;20046;-86
2021/01/20 06:29:38;;;;;;;17.52;9.63;;;;;;;-4.19;87.40;93769.59;5013077;28;20042;-87
2021/01/20 06:32:07;;;;;;;12.98;6.20;;;;;;;-4.11;87.33;93773.28;5013046;28;20049;-87
2021/01/20 06:34:33;;;;;;;17.67;11.88;;;;;;;-4.06;86.82;93782.09;5012849;28;20513;-86
2021/01/20 06:36:59;;;;;;;22.20;12.98;;;;;;;-4.03;85.58;93791.91;5012948;28;20046;-87
2021/01/20 06:39:33;;;;;;;21.67;12.68;;;;;;;-4.06;87.48;93781.28;5012988;28;20071;-87
2021/01/20 06:42:02;;;;;;;13.38;9.13;;;;;;;-4.06;87.26;93767.06;5013017;28;20046;-86
2021/01/20 06:44:28;;;;;;;21.25;9.82;;;;;;;-3.95;87.47;93775.50;5012793;28;20084;-86
2021/01/20 06:47:04;;;;;;;15.48;7.07;;;;;;;-3.88;87.70;93771.69;5013184;28;20096;-87
2021/01/20 06:49:31;;;;;;;24.58;6.25;;;;;;;-3.77;87.26;93775.94;5013064;28;20079;-86
2021/01/20 06:52:09;;;;;;;15.93;8.65;;;;;;;-3.73;85.98;93779.03;5012692;28;20517;-86
2021/01/20 06:54:37;;;;;;;15.20;7.88;;;;;;;-3.68;86.00;93777.00;5013045;28;20050;-86
2021/01/20 06:57:28;;;;;;;26.33;9.13;;;;;;;-3.65;86.27;93767.53;5008110;28;20046;-86
2021/01/20 07:00:21;;;;;;;13.55;7.25;;;;;;;-3.74;86.34;93742.28;4993305;28;20042;-85
2021/01/20 07:03:04;;;;;;;7.38;5.70;;;;;;;-3.47;85.91;93781.41;4993093;28;20390;-85
2021/01/20 07:05:35;;;;;;;25.10;7.82;;;;;;;-3.37;85.95;93778.13;4992872;28;20049;-85
2021/01/20 07:08:01;;;;;;;58.33;31.17;;;;;;;-3.24;85.57;93775.53;4993118;28;20046;-86
2021/01/20 07:10:47;;;;;;;14.38;10.25;;;;;;;-3.01;84.57;93788.13;4992874;28;20438;-86
2021/01/20 07:13:17;;;;;;;;;;;;;;;-2.82;83.20;93785.06;4976948;28;20120;-85
2021/01/20 07:15:48;;;;;;;12.80;5.78;;;;;;;-2.77;82.90;93781.41;4992552;28;19993;-86
2021/01/20 07:18:16;;;;;;;58.63;20.02;;;;;;;-2.61;82.24;93778.53;4992737;28;20109;-86
2021/01/20 07:20:43;;;;;;;177.77;48.25;;;;;;;-2.58;81.08;93774.06;4992762;28;20050;-86
2021/01/20 07:23:10;;;;;;;49.97;23.27;;;;;;;-2.43;80.85;93792.28;4992807;28;20131;-86
2021/01/20 07:25:37;;;;;;;30.48;14.18;;;;;;;-2.35;80.55;93800.94;4992588;28;20069;-84
2021/01/20 07:28:03;;;;;;;33.50;21.05;;;;;;;-2.39;80.80;93797.06;4992463;28;20042;-85
2021/01/20 07:30:31;;;;;;;47.35;20.58;;;;;;;-2.52;82.41;93794.66;4992223;28;20046;-84
2021/01/20 07:32:58;;;;;;;99.47;34.60;;;;;;;-2.48;81.38;93798.53;4992324;28;20051;-86
2021/01/20 07:35:26;;;;;;;169.55;48.22;;;;;;;-2.38;81.02;93786.88;4992547;28;20398;-85
2021/01/20 07:38:03;;;;;;;116.35;37.22;;;;;;;-2.17;79.40;93789.47;4992350;28;20405;-84
2021/01/20 07:40:30;;;;;;;65.05;24.77;;;;;;;-2.26;77.46;93767.53;4992484;28;20054;-84
2021/01/20 07:42:57;;;;;;;108.30;38.17;;;;;;;-1.86;76.94;93810.72;4991794;28;20057;-84
2021/01/20 07:45:33;;;;;;;;;;;;;;;-1.85;76.77;93818.13;4992752;28;20112;-84
2021/01/20 07:48:00;;;;;;;177.75;51.75;;;;;;;-1.80;75.74;93812.75;4991482;28;19925;-84
2021/01/20 07:50:43;;;;;;;161.98;42.70;;;;;;;-1.71;74.71;93811.22;4991983;28;20050;-84
2021/01/20 07:53:11;;;;;;;74.82;25.90;;;;;;;-1.50;75.27;93813.78;4991958;28;20554;-84
2021/01/20 07:55:38;;;;;;;286.65;82.93;;;;;;;-1.25;73.46;93805.06;4992104;28;20089;-83
2021/01/20 07:58:05;;;;;;;288.65;78.07;;;;;;;-0.86;72.86;93811.28;4992189;28;20060;-83
2021/01/20 08:00:39;;;;;;;170.18;50.22;;;;;;;-0.69;71.96;93822.53;4992163;28;20093;-83
2021/01/20 08:03:07;;;;;;;202.45;59.55;;;;;;;-0.72;71.39;93800.88;4992023;28;20396;-83
2021/01/20 08:05:33;;;;;;;159.18;45.95;;;;;;;-0.55;71.07;93791.91;4992001;28;20046;-83
2021/01/20 08:08:07;;;;;;;126.55;35.25;;;;;;;-0.34;71.16;93808.72;4991662;28;20046;-83
2021/01/20 08:10:35;;;;;;;62.75;21.83;;;;;;;-0.25;70.22;93802.09;4991961;28;20046;-83
2021/01/20 08:13:02;;;;;;;115.30;32.72;;;;;;;0.01;69.78;93824.38;4991913;28;20487;-83
2021/01/20 08:15:32;;;;;;;203.45;54.70;;;;;;;0.18;68.67;93819.63;4991598;28;20093;-83
2021/01/20 08:17:59;;;;;;;296.02;81.45;;;;;;;0.39;68.30;93829.63;4991762;28;20050;-83
2021/01/20 08:20:32;;;;;;;248.18;68.00;;;;;;;0.65;68.33;93824.06;4991530;28;20042;-83
2021/01/20 08:22:59;;;;;;;94.82;28.48;;;;;;;0.88;67.51;93816.19;4991911;28;20042;-83
2021/01/20 08:25:26;;;;;;;193.05;46.38;;;;;;;1.03;67.65;93814.03;4991699;28;20042;-83
2021/01/20 08:27:52;;;;;;;71.75;22.45;;;;;;;1.23;66.20;93824.09;4991655;28;20046;-83
2021/01/20 08:30:28;;;;;;;;;;;;;;;1.25;67.12;93823.03;4991934;28;20475;-83
2021/01/20 08:32:55;;;;;;;38.65;10.93;;;;;;;0.98;64.97;93819.50;4991385;28;20355;-82
2021/01/20 08:35:27;;;;;;;26.42;7.55;;;;;;;1.19;66.00;93815.97;4991706;28;20050;-83
2021/01/20 08:37:54;;;;;;;19.20;5.95;;;;;;;1.23;65.88;93816.50;4991599;28;20046;-83
2021/01/20 08:40:20;;;;;;;;;;;;;;;1.28;65.94;93822.75;4991899;28;20046;-83
2021/01/20 08:42:46;;;;;;;43.40;12.13;;;;;;;1.35;66.20;93819.69;4991468;28;19973;-83
2021/01/20 08:45:13;;;;;;;;;;;;;;;1.45;65.08;93816.16;4991969;28;20038;-84
2021/01/20 08:47:49;;;;;;;16.58;6.95;;;;;;;1.56;65.03;93800.00;4991623;28;19921;-83
2021/01/20 08:50:17;;;;;;;24.50;6.88;;;;;;;1.68;65.22;93809.97;4991415;28;20058;-84
2021/01/20 08:52:46;;;;;;;6.03;3.08;;;;;;;1.67;63.50;93804.09;4991549;28;20046;-83
2021/01/20 08:55:27;;;;;;;12.20;3.20;;;;;;;1.67;63.88;93806.63;4991311;28;20043;-83
2021/01/20 08:58:19;;;;;;;10.27;4.20;;;;;;;1.73;64.63;93806.06;4991404;28;20050;-83
2021/01/20 09:00:46;;;;;;;6.88;2.90;;;;;;;1.84;63.64;93809.34;4995383;28;20094;-84
2021/01/20 09:03:14;;;;;;;18.80;5.15;;;;;;;1.89;63.54;93819.09;4995261;28;20549;-84
2021/01/20 09:05:40;;;;;;;23.30;9.10;;;;;;;2.09;61.96;93807.88;4995114;28;20038;-84
2021/01/20 09:08:07;;;;;;;;;;;;;;;2.00;63.11;93813.81;4976200;28;20047;-85
2021/01/20 09:10:33;;;;;;;4.85;1.90;;;;;;;1.90;63.95;93813.84;4990763;28;19917;-85
2021/01/20 09:13:00;;;;;;;4.72;2.20;;;;;;;1.91;63.65;93815.47;4994911;28;20546;-84
2021/01/20 09:15:26;;;;;;;4.38;2.22;;;;;;;2.05;64.10;93800.72;4995159;28;20046;-84
2021/01/20 09:17:52;;;;;;;6.78;2.50;;;;;;;2.39;63.76;93808.50;4994977;28;20042;-85
2021/01/20 09:20:18;;;;;;;;;;;;;;;2.59;63.02;93810.09;4995375;28;20042;-84
2021/01/20 09:22:44;;;;;;;2.53;1.23;;;;;;;2.44;62.24;93792.84;4994913;28;20429;-84
2021/01/20 09:25:12;;;;;;;4.15;2.08;;;;;;;2.85;62.63;93807.63;4994888;28;20050;-84
2021/01/20 09:27:39;;;;;;;3.70;1.98;;;;;;;2.95;61.69;93802.44;4994753;28;20092;-84
2021/01/20 09:30:06;;;;;;;5.45;2.15;;;;;;;3.16;61.77;93797.03;4994921;28;20050;-84
2021/01/20 09:32:36;;;;;;;3.03;0.73;;;;;;;3.16;60.43;93797.03;4994551;28;20093;-84
2021/01/20 09:35:06;;;;;;;2.97;1.35;;;;;;;3.32;61.06;93803.16;4994562;28;20077;-84
2021/01/20 09:37:32;;;;;;;4.10;1.55;;;;;;;3.46;61.10;93801.81;4994424;28;20050;-84
2021/01/20 09:39:58;;;;;;;;;;;;;;;3.55;59.93;93789.94;4995001;28;20049;-84
2021/01/20 09:42:25;;;;;;;3.58;2.35;;;;;;;3.71;60.47;93794.31;4994601;28;19922;-84
2021/01/20 09:44:51;;;;;;;1.67;1.33;;;;;;;3.87;61.11;93783.41;4994847;28;20050;-84
2021/01/20 09:47:18;;;;;;;4.50;2.25;;;;;;;4.23;59.81;93779.84;4994495;28;20406;-85
2021/01/20 09:49:45;;;;;;;7.97;2.55;;;;;;;4.36;59.76;93774.31;4994445;28;20054;-85
2021/01/20 09:52:14;;;;;;;13.48;5.22;;;;;;;4.40;58.94;93778.91;4994174;28;20049;-84
2021/01/20 09:54:41;;;;;;;10.77;3.13;;;;;;;4.37;58.90;93761.44;4994358;28;20382;-84
2021/01/20 09:57:07;;;;;;;2.25;1.00;;;;;;;4.49;59.54;93771.31;4994267;28;20110;-84
2021/01/20 09:59:34;;;;;;;5.68;2.30;;;;;;;4.60;58.07;93767.63;4994152;28;20047;-85
2021/01/20 10:02:00;;;;;;;34.50;12.32;;;;;;;4.87;58.55;93768.28;4993963;28;20046;-84
2021/01/20 10:04:27;;;;;;;37.00;13.35;;;;;;;4.84;58.38;93769.38;4994082;28;20042;-85
2021/01/20 10:06:53;;;;;;;17.88;6.43;;;;;;;4.86;58.55;93769.22;4994006;28;20101;-84
2021/01/20 10:09:19;;;;;;;;;;;;;;;4.88;57.91;93770.66;4993690;28;20467;-83
2021/01/20 10:11:45;;;;;;;7.90;2.22;;;;;;;4.74;58.71;93763.66;4993595;28;19918;-85
2021/01/20 10:14:11;;;;;;;6.07;2.50;;;;;;;4.52;57.41;93763.34;4993987;28;20053;-84
2021/01/20 10:16:38;;;;;;;3.40;1.58;;;;;;;4.37;57.86;93755.53;4993878;28;20058;-84
2021/01/20 10:19:05;;;;;;;3.40;2.13;;;;;;;4.48;57.12;93762.06;4993810;28;20042;-83
2021/01/20 10:21:31;;;;;;;4.65;2.13;;;;;;;4.68;57.53;93762.56;4994178;28;20101;-84
2021/01/20 10:23:57;;;;;;;5.82;2.03;;;;;;;4.74;57.95;93749.19;4993735;28;20506;-85
2021/01/20 10:26:24;;;;;;;3.35;1.50;;;;;;;4.71;57.40;93736.78;4994197;28;20054;-84
2021/01/20 10:28:50;;;;;;;4.10;1.95;;;;;;;4.85;57.92;93749.84;4993808;28;20046;-86
2021/01/20 10:31:16;;;;;;;;;;;;;;;4.86;57.67;93748.88;4994661;28;20050;-84
2021/01/20 10:33:43;;;;;;;5.65;2.72;;;;;;;4.86;57.80;93748.88;4993421;28;20440;-84
2021/01/20 10:36:10;;;;;;;6.70;1.20;;;;;;;4.90;58.35;93742.47;4993250;28;20046;-84
2021/01/20 10:38:36;;;;;;;;;;;;;;;5.00;57.01;93747.41;4994152;28;20422;-84
2021/01/20 10:41:02;;;;;;;2.30;1.48;;;;;;;4.87;58.87;93740.28;4993602;28;19917;-84
2021/01/20 10:43:28;;;;;;;2.58;1.23;;;;;;;4.71;58.20;93726.59;4993498;28;20398;-84
2021/01/20 10:45:58;;;;;;;2.53;1.63;;;;;;;4.70;58.52;93732.66;4993372;28;20050;-83
2021/01/20 10:48:25;;;;;;;4.97;2.53;;;;;;;5.02;59.38;93741.22;4993107;28;20372;-84
2021/01/20 10:50:51;;;;;;;;;;;;;;;5.10;58.41;93731.97;4993636;28;20050;-85
2021/01/20 10:53:18;;;;;;;9.70;1.38;;;;;;;5.12;58.66;93730.84;4984351;28;19918;-84
2021/01/20 10:55:44;;;;;;;4.00;2.15;;;;;;;4.93;58.57;93703.97;4973790;28;20404;-84
2021/01/20 10:58:10;;;;;;;;;;;;;;;5.12;58.30;93732.59;4986854;28;20053;-85
2021/01/20 11:00:36;;;;;;;5.75;1.83;;;;;;;5.07;58.42;93730.53;4993111;28;20282;-86
2021/01/20 11:03:03;;;;;;;6.10;2.45;;;;;;;5.07;59.27;93727.97;4992997;28;20053;-84
2021/01/20 11:05:29;;;;;;;4.55;1.77;;;;;;;5.06;58.45;93711.13;4986874;28;20069;-86
2021/01/20 11:07:56;;;;;;;5.78;2.55;;;;;;;5.13;58.12;93737.50;4973380;28;20089;-84
2021/01/20 11:10:22;;;;;;;5.05;2.38;;;;;;;5.11;59.23;93731.00;4973308;28;20510;-85
2021/01/20 11:12:48;;;;;;;5.05;2.47;;;;;;;5.26;57.86;93726.00;4973431;28;20046;-85
2021/01/20 11:15:15;;;;;;;6.40;2.47;;;;;;;5.23;59.22;93716.94;4987192;28;20676;-85
2021/01/20 11:17:41;;;;;;;4.63;1.90;;;;;;;5.02;59.58;93731.03;4991287;28;20046;-86
2021/01/20 11:20:08;;;;;;;4.60;2.03;;;;;;;4.95;61.00;93722.44;4991849;28;20532;-86
2021/01/20 11:22:34;;;;;;;5.30;2.15;;;;;;;4.82;61.07;93726.28;4991564;28;20038;-86
2021/01/20 11:25:01;;;;;;;6.50;1.85;;;;;;;4.66;60.13;93700.84;4991604;28;20096;-88
2021/01/20 11:27:28;;;;;;;2.05;1.10;;;;;;;4.72;61.62;93707.81;4991606;28;20069;-91
2021/01/20 11:29:54;;;;;;;4.60;1.63;;;;;;;4.71;61.24;93726.59;4991271;28;20042;-89
2021/01/20 11:32:20;;;;;;;;;;;;;;;4.77;61.16;93722.63;4992188;28;20049;-88
2021/01/20 11:34:47;;;;;;;5.40;2.20;;;;;;;4.79;61.37;93721.53;4990834;28;20278;-89
2021/01/20 11:37:13;;;;;;;4.75;1.55;;;;;;;4.90;61.20;93722.13;4990580;28;20422;-88
2021/01/20 11:39:39;;;;;;;;;;;;;;;4.76;61.97;93721.81;4991321;28;20041;-88
2021/01/20 11:52:42;;;;;;;6.05;2.65;;;;;;;4.37;62.57;93669.88;5149511;27;20335;-89
2021/01/20 11:55:09;;;;;;;5.75;1.90;;;;;;;4.60;62.62;93699.75;5149280;27;20043;-87
2021/01/20 11:57:35;;;;;;;3.85;1.55;;;;;;;4.63;62.32;93696.09;5149199;27;20043;-87